Time,TemperatureF,DewpointF,PressureIn,WindDirection,WindDirectionDegrees,WindSpeedMPH,WindSpeedGustMPH,Humidity,HourlyPrecipIn,Conditions,Clouds,dailyrainin,SoftwareType,DateUTC
2013-03-02 00:01:00,38.0,16.0,-100.00,SW,235,-999.0,-999.0,43,-99.99,,,-99.99,,2013-03-02 07:01:00,
2013-03-02 00:11:00,38.0,16.0,-100.00,SW,235,-999.0,-999.0,43,-99.99,,,-99.99,,2013-03-02 07:11:00,
2013-03-02 00:21:00,38.0,16.0,-100.00,SW,235,-999.0,-999.0,43,-99.99,,,-99.99,,2013-03-02 07:21:00,
2013-03-02 00:32:00,38.0,16.0,-100.00,SW,235,-999.0,-999.0,43,-99.99,,,-99.99,,2013-03-02 07:32:00,
2013-03-02 00:42:00,39.0,16.0,-100.00,North,-999,-999.0,-999.0,40,-99.99,,,-99.99,,2013-03-02 07:42:00,
2013-03-02 00:51:00,39.0,18.0,-100.00,North,-999,-999.0,-999.0,42,-99.99,,,-99.99,,2013-03-02 07:51:00,
2013-03-02 01:01:00,39.0,18.0,-100.00,North,-999,-999.0,-999.0,42,-99.99,,,-99.99,,2013-03-02 08:01:00,
2013-03-02 01:11:00,39.0,18.0,-100.00,North,-999,-999.0,-999.0,42,-99.99,,,-99.99,,2013-03-02 08:11:00,
2013-03-02 01:21:00,39.0,18.0,-100.00,North,-999,-999.0,-999.0,42,-99.99,,,-99.99,,2013-03-02 08:21:00,
2013-03-02 01:32:00,39.0,18.0,-100.00,North,-999,-999.0,-999.0,42,-99.99,,,-99.99,,2013-03-02 08:32:00,
2013-03-02 01:42:00,39.0,18.0,-100.00,WSW,244,-999.0,-999.0,42,-99.99,,,-99.99,,2013-03-02 08:42:00,
2013-03-02 01:52:00,39.0,18.0,-100.00,WSW,244,-999.0,14.0,42,-99.99,,,-99.99,,2013-03-02 08:52:00,
2013-03-02 02:01:00,39.0,18.0,-100.00,WSW,244,-999.0,14.0,42,-99.99,,,-99.99,,2013-03-02 09:01:00,
2013-03-02 02:11:00,39.0,17.0,-100.00,WSW,244,-999.0,14.0,40,-99.99,,,-99.99,,2013-03-02 09:11:00,
2013-03-02 02:21:00,39.0,17.0,-100.00,WSW,244,-999.0,14.0,40,-99.99,,,-99.99,,2013-03-02 09:21:00,
2013-03-02 02:31:00,39.0,17.0,-100.00,WSW,244,-999.0,14.0,40,-99.99,,,-99.99,,2013-03-02 09:31:00,
2013-03-02 02:42:00,39.0,17.0,-100.00,North,-999,9.0,14.0,40,-99.99,,,-99.99,,2013-03-02 09:42:00,
2013-03-02 02:51:00,39.0,17.0,-100.00,North,-999,9.0,14.0,40,-99.99,,,-99.99,,2013-03-02 09:51:00,
2013-03-02 03:01:00,39.0,17.0,-100.00,North,-999,9.0,-999.0,40,-99.99,,,-99.99,,2013-03-02 10:01:00,
2013-03-02 03:15:00,39.0,17.0,-100.00,WSW,251,9.0,-999.0,40,-99.99,,,-99.99,,2013-03-02 10:15:00,
2013-03-02 03:21:00,39.0,17.0,-100.00,West,260,9.0,-999.0,40,-99.99,,,-99.99,,2013-03-02 10:21:00,
2013-03-02 03:31:00,39.0,17.0,-100.00,West,260,9.0,-999.0,40,-99.99,,,-99.99,,2013-03-02 10:31:00,
2013-03-02 03:42:00,39.0,17.0,-100.00,WSW,246,-999.0,-999.0,40,-99.99,,,-99.99,,2013-03-02 10:42:00,
2013-03-02 03:51:00,39.0,17.0,-100.00,SW,236,-999.0,-999.0,40,-99.99,,,-99.99,,2013-03-02 10:51:00,
2013-03-02 04:01:00,39.0,17.0,-100.00,SW,236,-999.0,-999.0,40,-99.99,,,-99.99,,2013-03-02 11:01:00,
2013-03-02 04:11:00,37.0,18.0,-100.00,SW,236,-999.0,-999.0,43,-99.99,,,-99.99,,2013-03-02 11:11:00,
2013-03-02 04:21:00,37.0,18.0,-100.00,SW,236,8.0,-999.0,43,-99.99,,,-99.99,,2013-03-02 11:21:00,
2013-03-02 04:32:00,37.0,18.0,-100.00,SW,236,8.0,-999.0,43,-99.99,,,-99.99,,2013-03-02 11:32:00,
2013-03-02 04:41:00,37.0,18.0,-100.00,SW,236,8.0,-999.0,43,-99.99,,,-99.99,,2013-03-02 11:41:00,
2013-03-02 04:52:00,37.0,18.0,-100.00,WSW,242,8.0,-999.0,43,-99.99,,,-99.99,,2013-03-02 11:52:00,
2013-03-02 05:02:00,37.0,18.0,-100.00,WSW,242,8.0,-999.0,43,-99.99,,,-99.99,,2013-03-02 12:02:00,
2013-03-02 05:11:00,37.0,15.0,-100.00,SW,234,8.0,-999.0,39,-99.99,,,-99.99,,2013-03-02 12:11:00,
2013-03-02 05:21:00,37.0,15.0,-100.00,SW,234,8.0,-999.0,39,-99.99,,,-99.99,,2013-03-02 12:21:00,
2013-03-02 05:32:00,37.0,15.0,-100.00,SW,234,-999.0,-999.0,39,-99.99,,,-99.99,,2013-03-02 12:32:00,
2013-03-02 05:43:00,37.0,15.0,-100.00,SW,234,-999.0,-999.0,39,-99.99,,,-99.99,,2013-03-02 12:43:00,
2013-03-02 05:53:00,37.0,18.0,-100.00,SW,222,-999.0,-999.0,46,-99.99,,,-99.99,,2013-03-02 12:53:00,
2013-03-02 06:01:00,37.0,18.0,-100.00,SW,222,-999.0,-999.0,46,-99.99,,,-99.99,,2013-03-02 13:01:00,
2013-03-02 06:11:00,37.0,16.0,-100.00,SW,222,-999.0,-999.0,40,-99.99,,,-99.99,,2013-03-02 13:11:00,
2013-03-02 06:21:00,37.0,16.0,-100.00,SW,232,-999.0,-999.0,40,-99.99,,,-99.99,,2013-03-02 13:21:00,
2013-03-02 06:31:00,37.0,16.0,-100.00,SW,232,-999.0,-999.0,40,-99.99,,,-99.99,,2013-03-02 13:31:00,
2013-03-02 06:41:00,37.0,16.0,-100.00,SW,232,-999.0,-999.0,40,-99.99,,,-99.99,,2013-03-02 13:41:00,
2013-03-02 06:52:00,37.0,16.0,-100.00,SW,226,-999.0,-999.0,40,-99.99,,,-99.99,,2013-03-02 13:52:00,
2013-03-02 07:01:00,37.0,16.0,-100.00,SW,226,-999.0,-999.0,40,-99.99,,,-99.99,,2013-03-02 14:01:00,
2013-03-02 07:11:00,37.0,16.0,-100.00,SW,226,-999.0,-999.0,40,-99.99,,,-99.99,,2013-03-02 14:11:00,
2013-03-02 07:21:00,39.0,17.0,-100.00,SW,235,-999.0,-999.0,40,-99.99,,,-99.99,,2013-03-02 14:21:00,
2013-03-02 07:32:00,39.0,17.0,-100.00,SW,235,-999.0,-999.0,40,-99.99,,,-99.99,,2013-03-02 14:32:00,
2013-03-02 07:42:00,39.0,17.0,-100.00,SW,235,10.0,-999.0,40,-99.99,,,-99.99,,2013-03-02 14:42:00,
2013-03-02 07:52:00,39.0,16.0,-100.00,SW,234,10.0,12.0,38,-99.99,,,-99.99,,2013-03-02 14:52:00,
2013-03-02 08:02:00,39.0,16.0,-100.00,SW,234,10.0,12.0,38,-99.99,,,-99.99,,2013-03-02 15:02:00,
2013-03-02 08:11:00,40.0,15.0,-100.00,SW,234,9.0,12.0,36,-99.99,,,-99.99,,2013-03-02 15:11:00,
2013-03-02 08:21:00,40.0,15.0,-100.00,SW,234,9.0,12.0,36,-99.99,,,-99.99,,2013-03-02 15:21:00,
2013-03-02 08:31:00,40.0,15.0,-100.00,SW,234,7.0,12.0,36,-99.99,,,-99.99,,2013-03-02 15:31:00,
2013-03-02 08:41:00,42.0,17.0,-100.00,SW,234,8.0,10.0,36,-99.99,,,-99.99,,2013-03-02 15:41:00,
2013-03-02 08:52:00,43.0,18.0,-100.00,SW,228,7.0,10.0,36,-99.99,,,-99.99,,2013-03-02 15:52:00,
2013-03-02 09:01:00,43.0,18.0,-100.00,SW,228,7.0,10.0,36,-99.99,,,-99.99,,2013-03-02 16:01:00,
2013-03-02 09:11:00,44.0,17.0,-100.00,SW,235,7.0,10.0,33,-99.99,,,-99.99,,2013-03-02 16:11:00,
2013-03-02 09:21:00,45.0,19.0,-100.00,SW,235,7.0,10.0,33,-99.99,,,-99.99,,2013-03-02 16:21:00,
2013-03-02 09:31:00,45.0,19.0,-100.00,SW,235,7.0,10.0,33,-99.99,,,-99.99,,2013-03-02 16:31:00,
2013-03-02 09:41:00,47.0,17.0,-100.00,WSW,242,7.0,-999.0,30,-99.99,,,-99.99,,2013-03-02 16:41:00,
2013-03-02 09:51:00,47.0,17.0,-100.00,WSW,242,7.0,-999.0,30,-99.99,,,-99.99,,2013-03-02 16:51:00,
2013-03-02 10:01:00,47.0,17.0,-100.00,WSW,242,-999.0,-999.0,30,-99.99,,,-99.99,,2013-03-02 17:01:00,
2013-03-02 10:11:00,49.0,20.0,-100.00,WSW,256,-999.0,-999.0,30,-99.99,,,-99.99,,2013-03-02 17:11:00,
2013-03-02 10:21:00,49.0,17.0,-100.00,WSW,250,-999.0,-999.0,27,-99.99,,,-99.99,,2013-03-02 17:21:00,
2013-03-02 10:32:00,49.0,17.0,-100.00,WSW,250,-999.0,-999.0,27,-99.99,,,-99.99,,2013-03-02 17:32:00,
2013-03-02 10:42:00,49.0,17.0,-100.00,SW,232,-999.0,-999.0,27,-99.99,,,-99.99,,2013-03-02 17:42:00,
2013-03-02 10:52:00,50.0,18.0,-100.00,WSW,242,-999.0,-999.0,27,-99.99,,,-99.99,,2013-03-02 17:52:00,
2013-03-02 11:01:00,50.0,18.0,-100.00,WSW,242,-999.0,-999.0,27,-99.99,,,-99.99,,2013-03-02 18:01:00,
2013-03-02 11:11:00,52.0,20.0,-100.00,WSW,251,-999.0,-999.0,27,-99.99,,,-99.99,,2013-03-02 18:11:00,
2013-03-02 11:22:00,53.0,17.0,-100.00,West,276,3.0,6.0,23,-99.99,,,-99.99,,2013-03-02 18:22:00,
2013-03-02 11:32:00,53.0,17.0,-100.00,West,276,3.0,6.0,23,-99.99,,,-99.99,,2013-03-02 18:32:00,
2013-03-02 11:42:00,56.0,20.0,-100.00,NW,314,3.0,6.0,23,-99.99,,,-99.99,,2013-03-02 18:42:00,
2013-03-02 11:51:00,53.0,16.0,-100.00,ESE,113,3.0,6.0,19,-99.99,,,-99.99,,2013-03-02 18:51:00,
2013-03-02 12:01:00,53.0,16.0,-100.00,ESE,113,3.0,6.0,19,-99.99,,,-99.99,,2013-03-02 19:01:00,
2013-03-02 12:11:00,53.0,18.0,-100.00,SE,124,5.0,6.0,23,-99.99,,,-99.99,,2013-03-02 19:11:00,
2013-03-02 12:21:00,53.0,21.0,-100.00,SE,139,5.0,6.0,27,-99.99,,,-99.99,,2013-03-02 19:21:00,
2013-03-02 12:31:00,53.0,21.0,-100.00,SE,139,5.0,-999.0,27,-99.99,,,-99.99,,2013-03-02 19:31:00,
2013-03-02 12:42:00,53.0,21.0,-100.00,SW,218,5.0,-999.0,27,-99.99,,,-99.99,,2013-03-02 19:42:00,
2013-03-02 12:52:00,55.0,17.0,-100.00,West,272,5.0,-999.0,22,-99.99,,,-99.99,,2013-03-02 19:52:00,
2013-03-02 13:01:00,55.0,17.0,-100.00,West,272,5.0,-999.0,22,-99.99,,,-99.99,,2013-03-02 20:01:00,
2013-03-02 13:11:00,55.0,17.0,-100.00,West,277,-999.0,7.0,22,-99.99,,,-99.99,,2013-03-02 20:11:00,
2013-03-02 13:21:00,55.0,17.0,-100.00,West,277,-999.0,7.0,22,-99.99,,,-99.99,,2013-03-02 20:21:00,
2013-03-02 13:32:00,55.0,17.0,-100.00,West,277,-999.0,7.0,22,-99.99,,,-99.99,,2013-03-02 20:32:00,
2013-03-02 13:42:00,58.0,21.0,-100.00,ESE,108,-999.0,7.0,22,-99.99,,,-99.99,,2013-03-02 20:42:00,
2013-03-02 13:52:00,55.0,19.0,-100.00,East,82,-999.0,7.0,22,-99.99,,,-99.99,,2013-03-02 20:52:00,
2013-03-02 14:02:00,55.0,19.0,-100.00,East,82,-999.0,7.0,22,-99.99,,,-99.99,,2013-03-02 21:02:00,
2013-03-02 14:11:00,53.0,21.0,-100.00,ESE,112,4.0,-999.0,25,-99.99,,,-99.99,,2013-03-02 21:11:00,
2013-03-02 14:22:00,54.0,22.0,-100.00,SE,128,4.0,-999.0,28,-99.99,,,-99.99,,2013-03-02 21:22:00,
2013-03-02 14:32:00,54.0,22.0,-100.00,SE,128,4.0,-999.0,28,-99.99,,,-99.99,,2013-03-02 21:32:00,
2013-03-02 14:42:00,53.0,20.0,-100.00,SE,134,6.0,-999.0,25,-99.99,,,-99.99,,2013-03-02 21:42:00,
2013-03-02 14:52:00,53.0,22.0,-100.00,SSE,147,6.0,-999.0,27,-99.99,,,-99.99,,2013-03-02 21:52:00,
2013-03-02 15:01:00,53.0,22.0,-100.00,SSE,147,6.0,-999.0,27,-99.99,,,-99.99,,2013-03-02 22:01:00,
2013-03-02 15:11:00,53.0,22.0,-100.00,SSE,147,6.0,-999.0,27,-99.99,,,-99.99,,2013-03-02 22:11:00,
2013-03-02 15:21:00,52.0,24.0,-100.00,SSE,147,6.0,-999.0,31,-99.99,,,-99.99,,2013-03-02 22:21:00,
2013-03-02 15:32:00,52.0,24.0,-100.00,SSE,147,6.0,-999.0,31,-99.99,,,-99.99,,2013-03-02 22:32:00,
2013-03-02 15:42:00,52.0,25.0,-100.00,SSE,147,-999.0,-999.0,34,-99.99,,,-99.99,,2013-03-02 22:42:00,
2013-03-02 15:51:00,52.0,25.0,-100.00,SSE,160,-999.0,-999.0,34,-99.99,,,-99.99,,2013-03-02 22:51:00,
2013-03-02 16:01:00,52.0,25.0,-100.00,SSE,160,-999.0,-999.0,34,-99.99,,,-99.99,,2013-03-02 23:01:00,
2013-03-02 16:11:00,52.0,25.0,-100.00,SSE,160,-999.0,-999.0,34,-99.99,,,-99.99,,2013-03-02 23:11:00,
2013-03-02 16:21:00,52.0,25.0,-100.00,SSE,151,-999.0,-999.0,34,-99.99,,,-99.99,,2013-03-02 23:21:00,
2013-03-02 16:32:00,52.0,25.0,-100.00,SSE,151,-999.0,-999.0,34,-99.99,,,-99.99,,2013-03-02 23:32:00,
2013-03-02 16:42:00,52.0,25.0,-100.00,SSE,164,-999.0,-999.0,34,-99.99,,,-99.99,,2013-03-02 23:42:00,
2013-03-02 16:52:00,52.0,23.0,-100.00,SSE,164,-999.0,-999.0,32,-99.99,,,-99.99,,2013-03-02 23:52:00,
2013-03-02 17:02:00,52.0,23.0,-100.00,SSE,164,-999.0,-999.0,32,-99.99,,,-99.99,,2013-03-03 00:02:00,
2013-03-02 17:11:00,52.0,21.0,-100.00,South,173,-999.0,-999.0,29,-99.99,,,-99.99,,2013-03-03 00:11:00,
2013-03-02 17:22:00,52.0,21.0,-100.00,SSW,205,-999.0,-999.0,29,-99.99,,,-99.99,,2013-03-03 00:22:00,
2013-03-02 17:32:00,52.0,21.0,-100.00,SSW,205,-999.0,-999.0,29,-99.99,,,-99.99,,2013-03-03 00:32:00,
2013-03-02 17:42:00,49.0,19.0,-100.00,SSW,205,-999.0,-999.0,29,-99.99,,,-99.99,,2013-03-03 00:42:00,
2013-03-02 17:52:00,49.0,22.0,-100.00,WSW,238,-999.0,-999.0,34,-99.99,,,-99.99,,2013-03-03 00:52:00,
2013-03-02 18:01:00,49.0,22.0,-100.00,WSW,238,-999.0,-999.0,34,-99.99,,,-99.99,,2013-03-03 01:01:00,
2013-03-02 18:11:00,49.0,22.0,-100.00,WSW,254,-999.0,-999.0,34,-99.99,,,-99.99,,2013-03-03 01:11:00,
2013-03-02 18:21:00,50.0,20.0,-100.00,SW,234,-999.0,-999.0,31,-99.99,,,-99.99,,2013-03-03 01:21:00,
2013-03-02 18:31:00,50.0,20.0,-100.00,SW,234,-999.0,-999.0,31,-99.99,,,-99.99,,2013-03-03 01:31:00,
2013-03-02 18:41:00,47.0,19.0,-100.00,East,96,-999.0,-999.0,31,-99.99,,,-99.99,,2013-03-03 01:41:00,
2013-03-02 18:52:00,47.0,21.0,-100.00,SE,141,-999.0,-999.0,34,-99.99,,,-99.99,,2013-03-03 01:52:00,
2013-03-02 19:01:00,47.0,21.0,-100.00,SE,141,-999.0,-999.0,34,-99.99,,,-99.99,,2013-03-03 02:01:00,
2013-03-02 19:11:00,47.0,21.0,-100.00,SW,219,-999.0,-999.0,34,-99.99,,,-99.99,,2013-03-03 02:11:00,
2013-03-02 19:21:00,47.0,21.0,-100.00,SW,219,-999.0,-999.0,34,-99.99,,,-99.99,,2013-03-03 02:21:00,
2013-03-02 19:31:00,50.0,20.0,-100.00,SSW,207,-999.0,-999.0,32,-99.99,,,-99.99,,2013-03-03 02:31:00,
2013-03-02 19:41:00,50.0,19.0,-100.00,SW,224,-999.0,-999.0,27,-99.99,,,-99.99,,2013-03-03 02:41:00,
2013-03-02 19:52:00,48.0,17.0,-100.00,NNE,13,-999.0,-999.0,27,-99.99,,,-99.99,,2013-03-03 02:52:00,
2013-03-02 20:01:00,48.0,17.0,-100.00,NNE,13,-999.0,-999.0,27,-99.99,,,-99.99,,2013-03-03 03:01:00,
2013-03-02 20:11:00,48.0,19.0,-100.00,WSW,253,3.0,-999.0,30,-99.99,,,-99.99,,2013-03-03 03:11:00,
2013-03-02 20:21:00,48.0,19.0,-100.00,SW,222,3.0,-999.0,30,-99.99,,,-99.99,,2013-03-03 03:21:00,
2013-03-02 20:31:00,48.0,19.0,-100.00,SW,222,3.0,-999.0,30,-99.99,,,-99.99,,2013-03-03 03:31:00,
2013-03-02 20:41:00,48.0,19.0,-100.00,SW,215,5.0,-999.0,30,-99.99,,,-99.99,,2013-03-03 03:41:00,
2013-03-02 20:51:00,48.0,21.0,-100.00,SW,215,5.0,-999.0,33,-99.99,,,-99.99,,2013-03-03 03:51:00,
2013-03-02 21:01:00,48.0,21.0,-100.00,SW,215,5.0,-999.0,33,-99.99,,,-99.99,,2013-03-03 04:01:00,
2013-03-02 21:11:00,48.0,21.0,-100.00,SW,215,5.0,-999.0,33,-99.99,,,-99.99,,2013-03-03 04:11:00,
2013-03-02 21:21:00,48.0,21.0,-100.00,SW,215,5.0,-999.0,33,-99.99,,,-99.99,,2013-03-03 04:21:00,
2013-03-02 21:31:00,48.0,21.0,-100.00,SSW,207,5.0,-999.0,33,-99.99,,,-99.99,,2013-03-03 04:31:00,
2013-03-02 21:41:00,48.0,21.0,-100.00,SSW,201,-999.0,-999.0,33,-99.99,,,-99.99,,2013-03-03 04:41:00,
2013-03-02 21:51:00,48.0,21.0,-100.00,SSW,201,-999.0,-999.0,33,-99.99,,,-99.99,,2013-03-03 04:51:00,
2013-03-02 22:01:00,48.0,21.0,-100.00,SSW,201,-999.0,-999.0,33,-99.99,,,-99.99,,2013-03-03 05:01:00,
2013-03-02 22:11:00,47.0,20.0,-100.00,SSW,201,-999.0,-999.0,33,-99.99,,,-99.99,,2013-03-03 05:11:00,
2013-03-02 22:22:00,47.0,20.0,-100.00,SSW,201,-999.0,-999.0,33,-99.99,,,-99.99,,2013-03-03 05:22:00,
2013-03-02 22:32:00,47.0,20.0,-100.00,SSW,201,-999.0,-999.0,33,-99.99,,,-99.99,,2013-03-03 05:32:00,
2013-03-02 22:42:00,47.0,20.0,-100.00,SSW,206,-999.0,-999.0,33,-99.99,,,-99.99,,2013-03-03 05:42:00,
2013-03-02 22:52:00,47.0,20.0,-100.00,SSW,206,-999.0,-999.0,33,-99.99,,,-99.99,,2013-03-03 05:52:00,
2013-03-02 23:01:00,47.0,20.0,-100.00,SSW,206,-999.0,-999.0,33,-99.99,,,-99.99,,2013-03-03 06:01:00,
2013-03-02 23:11:00,47.0,20.0,-100.00,SW,214,-999.0,-999.0,33,-99.99,,,-99.99,,2013-03-03 06:11:00,
2013-03-02 23:21:00,47.0,20.0,-100.00,SW,214,-999.0,-999.0,33,-99.99,,,-99.99,,2013-03-03 06:21:00,
2013-03-02 23:31:00,47.0,20.0,-100.00,SW,214,-999.0,-999.0,33,-99.99,,,-99.99,,2013-03-03 06:31:00,
2013-03-02 23:42:00,48.0,21.0,-100.00,SW,226,7.0,12.0,33,-99.99,,,-99.99,,2013-03-03 06:42:00,
2013-03-02 23:52:00,48.0,21.0,-100.00,SW,226,7.0,12.0,33,-99.99,,,-99.99,,2013-03-03 06:52:00,